sensor_id;sensor_type;location;lat;lon;timestamp;pressure;altitude;pressure_sealevel;temperature;humidity
45113;BME280;30873;53.908;27.576;2023-02-13T00:01:33;1027;;;3.1;61.6
45113;BME280;30873;53.908;27.576;2023-02-13T00:06:59;1027;;;3.1;62
45113;BME280;30873;53.908;27.576;2023-02-13T00:11:59;1026.9;;;3.2;62
45113;BME280;30873;53.908;27.576;2023-02-13T00:16:21;1026.9;;;3.1;62.4
45113;BME280;30873;53.908;27.576;2023-02-13T00:21:57;1026.9;;;3.1;62.7
45113;BME280;30873;53.908;27.576;2023-02-13T00:26:08;1026.9;;;3.1;63
45113;BME280;30873;53.908;27.576;2023-02-13T00:31:47;1026.9;;;3.1;63.1
45113;BME280;30873;53.908;27.576;2023-02-13T00:36:08;1026.8;;;3;63.5
45113;BME280;30873;53.908;27.576;2023-02-13T00:41:57;1026.7;;;3;64.2
45113;BME280;30873;53.908;27.576;2023-02-13T00:46:33;1026.6;;;2.9;64.8
45113;BME280;30873;53.908;27.576;2023-02-13T00:51:47;1026.5;;;3;65.2
45113;BME280;30873;53.908;27.576;2023-02-13T00:56:32;1026.4;;;3;65.3
45113;BME280;30873;53.908;27.576;2023-02-13T01:01:57;1026.3;;;3;65.7
45113;BME280;30873;53.908;27.576;2023-02-13T01:06:21;1026.3;;;3;65.9
45113;BME280;30873;53.908;27.576;2023-02-13T01:11:07;1026.1;;;3;65.9
45113;BME280;30873;53.908;27.576;2023-02-13T01:16:35;1026.1;;;3;66.1
45113;BME280;30873;53.908;27.576;2023-02-13T01:21:21;1026;;;3;66.6
45113;BME280;30873;53.908;27.576;2023-02-13T01:26:45;1026;;;3.1;66.5
45113;BME280;30873;53.908;27.576;2023-02-13T01:31:59;1026;;;3.1;66.7
45113;BME280;30873;53.908;27.576;2023-02-13T01:36:33;1026;;;3.1;66.9
45113;BME280;30873;53.908;27.576;2023-02-13T01:41:33;1026;;;3.1;67
45113;BME280;30873;53.908;27.576;2023-02-13T01:46:57;1026;;;3.1;67.2
45113;BME280;30873;53.908;27.576;2023-02-13T01:51:33;1025.9;;;3;67.6
45113;BME280;30873;53.908;27.576;2023-02-13T01:56:36;1025.8;;;3;68.2
45113;BME280;30873;53.908;27.576;2023-02-13T02:01:35;1025.7;;;3.1;68.5
45113;BME280;30873;53.908;27.576;2023-02-13T02:06:08;1025.6;;;3.2;68.4
45113;BME280;30873;53.908;27.576;2023-02-13T02:11:08;1025.5;;;3.2;68.6
45113;BME280;30873;53.908;27.576;2023-02-13T02:16:07;1025.6;;;3.1;69.1
45113;BME280;30873;53.908;27.576;2023-02-13T02:21:42;1025.6;;;3.2;69.7
45113;BME280;30873;53.908;27.576;2023-02-13T02:27:01;1025.5;;;3.1;69.7
45113;BME280;30873;53.908;27.576;2023-02-13T02:37:03;1025.3;;;3.2;70.5
45113;BME280;30873;53.908;27.576;2023-02-13T02:42:00;1025.3;;;3.1;71
45113;BME280;30873;53.908;27.576;2023-02-13T02:46:48;1025.4;;;3.1;71.6
45113;BME280;30873;53.908;27.576;2023-02-13T02:51:08;1025.4;;;3.1;71.8
45113;BME280;30873;53.908;27.576;2023-02-13T02:56:59;1025.3;;;3;72.5
45113;BME280;30873;53.908;27.576;2023-02-13T03:01:12;1025.3;;;3;72.8
45113;BME280;30873;53.908;27.576;2023-02-13T03:06:22;1025.3;;;3;73.3
45113;BME280;30873;53.908;27.576;2023-02-13T03:11:57;1025.2;;;3;73.5
45113;BME280;30873;53.908;27.576;2023-02-13T03:16:45;1025.1;;;3;73.8
45113;BME280;30873;53.908;27.576;2023-02-13T03:21:46;1025;;;3;73.9
45113;BME280;30873;53.908;27.576;2023-02-13T03:26:25;1024.9;;;3;74.2
45113;BME280;30873;53.908;27.576;2023-02-13T03:32:01;1025;;;3.1;74.2
45113;BME280;30873;53.908;27.576;2023-02-13T03:36:24;1024.9;;;3.2;74.3
45113;BME280;30873;53.908;27.576;2023-02-13T03:41:22;1025;;;3.2;74.1
45113;BME280;30873;53.908;27.576;2023-02-13T03:46:07;1025;;;3.3;74
45113;BME280;30873;53.908;27.576;2023-02-13T03:51:48;1025;;;3.4;73.7
45113;BME280;30873;53.908;27.576;2023-02-13T03:56:33;1024.9;;;3.4;73.6
45113;BME280;30873;53.908;27.576;2023-02-13T04:01:47;1024.7;;;3.5;73.5
45113;BME280;30873;53.908;27.576;2023-02-13T04:07:00;1024.7;;;3.4;73.9
45113;BME280;30873;53.908;27.576;2023-02-13T04:11:34;1024.8;;;3.5;74.1
45113;BME280;30873;53.908;27.576;2023-02-13T04:16:45;1024.9;;;3.5;74.3
45113;BME280;30873;53.908;27.576;2023-02-13T04:21:33;1024.9;;;3.5;74.4
45113;BME280;30873;53.908;27.576;2023-02-13T04:26:59;1024.9;;;3.4;74.9
45113;BME280;30873;53.908;27.576;2023-02-13T04:31:07;1025;;;3.4;75.5
45113;BME280;30873;53.908;27.576;2023-02-13T04:36:41;1025;;;3.4;76
45113;BME280;30873;53.908;27.576;2023-02-13T04:41:33;1025.1;;;3.4;76.2
45113;BME280;30873;53.908;27.576;2023-02-13T04:46:45;1025;;;3.4;76.5
45113;BME280;30873;53.908;27.576;2023-02-13T04:51:07;1025;;;3.4;76.9
45113;BME280;30873;53.908;27.576;2023-02-13T04:56:55;1025.1;;;3.4;77
45113;BME280;30873;53.908;27.576;2023-02-13T05:01:31;1025;;;3.4;77.5
45113;BME280;30873;53.908;27.576;2023-02-13T05:06:43;1025;;;3.5;77.5
45113;BME280;30873;53.908;27.576;2023-02-13T05:11:59;1025;;;3.5;77.3
45113;BME280;30873;53.908;27.576;2023-02-13T05:16:31;1025;;;3.5;77.4
45113;BME280;30873;53.908;27.576;2023-02-13T05:21:19;1024.9;;;3.5;77.5
45113;BME280;30873;53.908;27.576;2023-02-13T05:26:07;1024.9;;;3.5;77.5
45113;BME280;30873;53.908;27.576;2023-02-13T05:31:45;1024.9;;;3.6;77.6
45113;BME280;30873;53.908;27.576;2023-02-13T05:36:43;1025;;;3.7;77.8
45113;BME280;30873;53.908;27.576;2023-02-13T05:41:43;1025.1;;;3.8;77.9
45113;BME280;30873;53.908;27.576;2023-02-13T05:46:17;1025.1;;;3.9;77.6
45113;BME280;30873;53.908;27.576;2023-02-13T05:51:43;1025.2;;;4;77.2
45113;BME280;30873;53.908;27.576;2023-02-13T05:56:07;1025.2;;;4.1;77.2
45113;BME280;30873;53.908;27.576;2023-02-13T06:01:55;1025.1;;;4.1;76.8
45113;BME280;30873;53.908;27.576;2023-02-13T06:06:57;1025.1;;;4.1;76.7
45113;BME280;30873;53.908;27.576;2023-02-13T06:11:19;1025.1;;;4.2;76.8
45113;BME280;30873;53.908;27.576;2023-02-13T06:16:57;1025.1;;;4.3;76.7
45113;BME280;30873;53.908;27.576;2023-02-13T06:21:19;1025;;;4.3;76.5
45113;BME280;30873;53.908;27.576;2023-02-13T06:26:45;1025;;;4.3;76.8
45113;BME280;30873;53.908;27.576;2023-02-13T06:31:07;1025;;;4.3;76.9
45113;BME280;30873;53.908;27.576;2023-02-13T06:36:55;1024.9;;;4.3;76.9
45113;BME280;30873;53.908;27.576;2023-02-13T06:41:29;1024.8;;;4.5;77
45113;BME280;30873;53.908;27.576;2023-02-13T06:46:57;1024.7;;;4.5;76.6
45113;BME280;30873;53.908;27.576;2023-02-13T06:51:29;1024.7;;;4.4;76.8
45113;BME280;30873;53.908;27.576;2023-02-13T06:56:57;1024.7;;;4.5;76.8
45113;BME280;30873;53.908;27.576;2023-02-13T07:01:31;1024.8;;;4.5;76.7
45113;BME280;30873;53.908;27.576;2023-02-13T07:06:07;1024.7;;;4.5;76.8
45113;BME280;30873;53.908;27.576;2023-02-13T07:11:31;1024.6;;;4.6;76.9
45113;BME280;30873;53.908;27.576;2023-02-13T07:16:19;1024.6;;;4.7;76.6
45113;BME280;30873;53.908;27.576;2023-02-13T07:21:55;1024.6;;;4.8;76.3
45113;BME280;30873;53.908;27.576;2023-02-13T07:26:57;1024.5;;;4.9;76
45113;BME280;30873;53.908;27.576;2023-02-13T07:31:19;1024.5;;;5;75.7
45113;BME280;30873;53.908;27.576;2023-02-13T07:36:31;1024.5;;;5;75.4
45113;BME280;30873;53.908;27.576;2023-02-13T07:41:55;1024.5;;;5;75.1
45113;BME280;30873;53.908;27.576;2023-02-13T07:46:31;1024.5;;;5;75.2
45113;BME280;30873;53.908;27.576;2023-02-13T07:51:31;1024.5;;;5;75
45113;BME280;30873;53.908;27.576;2023-02-13T07:56:35;1024.4;;;5.1;75.1
45113;BME280;30873;53.908;27.576;2023-02-13T08:01:45;1024.3;;;5.1;74.8
45113;BME280;30873;53.908;27.576;2023-02-13T08:06:33;1024.4;;;5.2;74.8
45113;BME280;30873;53.908;27.576;2023-02-13T08:11:21;1024.4;;;5.2;74.6
45113;BME280;30873;53.908;27.576;2023-02-13T08:16:33;1024.5;;;5.3;74.5
45113;BME280;30873;53.908;27.576;2023-02-13T08:21:45;1024.5;;;5.3;74.4
45113;BME280;30873;53.908;27.576;2023-02-13T08:26:41;1024.5;;;5.4;74.3
45113;BME280;30873;53.908;27.576;2023-02-13T08:31:08;1024.4;;;5.4;74.1
45113;BME280;30873;53.908;27.576;2023-02-13T08:36:55;1024.3;;;5.3;74.4
45113;BME280;30873;53.908;27.576;2023-02-13T08:41:07;1024.3;;;5.4;74.5
45113;BME280;30873;53.908;27.576;2023-02-13T08:46:07;1024.3;;;5.4;74.4
45113;BME280;30873;53.908;27.576;2023-02-13T08:51:33;1024.2;;;5.4;74.5
45113;BME280;30873;53.908;27.576;2023-02-13T08:56:19;1024.1;;;5.6;74.1
45113;BME280;30873;53.908;27.576;2023-02-13T09:01:31;1024.1;;;5.5;74
45113;BME280;30873;53.908;27.576;2023-02-13T09:06:19;1024.1;;;5.6;74
45113;BME280;30873;53.908;27.576;2023-02-13T09:11:33;1024.1;;;5.6;74
45113;BME280;30873;53.908;27.576;2023-02-13T14:01:33;1024.1;;;5.6;74
45113;BME280;30873;53.908;27.576;2023-02-13T14:16:58;1022.2;;;6;74.3
45113;BME280;30873;53.908;27.576;2023-02-13T14:21:31;1022.2;;;6;74.3
45113;BME280;30873;53.908;27.576;2023-02-13T14:36:19;1022.3;;;5.9;74
45113;BME280;30873;53.908;27.576;2023-02-13T14:41:22;1022.2;;;5.9;74
45113;BME280;30873;53.908;27.576;2023-02-13T14:46:34;1022.1;;;5.8;74.1
45113;BME280;30873;53.908;27.576;2023-02-13T14:51:12;1022.1;;;5.8;74.2
45113;BME280;30873;53.908;27.576;2023-02-13T14:56:20;1022.1;;;5.8;74.4
45113;BME280;30873;53.908;27.576;2023-02-13T15:01:22;1022.1;;;5.9;74.2
45113;BME280;30873;53.908;27.576;2023-02-13T15:06:18;1022.2;;;5.8;74.2
45113;BME280;30873;53.908;27.576;2023-02-13T15:11:57;1022.2;;;5.7;74.5
45113;BME280;30873;53.908;27.576;2023-02-13T15:16:08;1022.2;;;5.7;74.7
45113;BME280;30873;53.908;27.576;2023-02-13T15:21:58;1022.2;;;5.7;75
45113;BME280;30873;53.908;27.576;2023-02-13T15:26:59;1021.9;;;5.7;75.1
45113;BME280;30873;53.908;27.576;2023-02-13T15:31:32;1021.8;;;5.7;75.1
45113;BME280;30873;53.908;27.576;2023-02-13T15:36:12;1021.8;;;5.6;75.2
45113;BME280;30873;53.908;27.576;2023-02-13T15:41:46;1021.9;;;5.6;75.3
45113;BME280;30873;53.908;27.576;2023-02-13T15:46:16;1022.1;;;5.6;75.5
45113;BME280;30873;53.908;27.576;2023-02-13T15:51:43;1022.1;;;5.7;75.6
45113;BME280;30873;53.908;27.576;2023-02-13T15:56:56;1022.1;;;5.7;75.3
45113;BME280;30873;53.908;27.576;2023-02-13T16:01:33;1022.1;;;5.9;75.8
45113;BME280;30873;53.908;27.576;2023-02-13T16:06:19;1022;;;6.3;74.5
45113;BME280;30873;53.908;27.576;2023-02-13T16:11:18;1022;;;6.1;74
45113;BME280;30873;53.908;27.576;2023-02-13T16:16:56;1022.1;;;5.9;74.6
45113;BME280;30873;53.908;27.576;2023-02-13T16:21:07;1022.1;;;5.8;75.1
45113;BME280;30873;53.908;27.576;2023-02-13T16:26:43;1022;;;5.8;75.3
45113;BME280;30873;53.908;27.576;2023-02-13T16:31:31;1022;;;5.7;75.6
45113;BME280;30873;53.908;27.576;2023-02-13T16:36:41;1022.1;;;5.7;76
45113;BME280;30873;53.908;27.576;2023-02-13T16:46:21;1022;;;5.8;75.7
45113;BME280;30873;53.908;27.576;2023-02-13T16:51:57;1022;;;5.8;75.5
45113;BME280;30873;53.908;27.576;2023-02-13T16:56:42;1021.9;;;5.8;75.6
45113;BME280;30873;53.908;27.576;2023-02-13T17:01:41;1021.8;;;5.8;75.5
45113;BME280;30873;53.908;27.576;2023-02-13T17:06:31;1021.7;;;5.8;75.5
45113;BME280;30873;53.908;27.576;2023-02-13T17:11:57;1021.7;;;5.8;75.5
45113;BME280;30873;53.908;27.576;2023-02-13T17:16:21;1021.7;;;5.9;75.3
45113;BME280;30873;53.908;27.576;2023-02-13T17:21:57;1021.8;;;5.9;75.1
45113;BME280;30873;53.908;27.576;2023-02-13T17:26:19;1021.8;;;5.9;75.1
45113;BME280;30873;53.908;27.576;2023-02-13T17:31:43;1021.6;;;5.9;75.1
45113;BME280;30873;53.908;27.576;2023-02-13T17:36:08;1021.5;;;6.5;74.9
45113;BME280;30873;53.908;27.576;2023-02-13T17:41:55;1021.5;;;6.4;73.1
45113;BME280;30873;53.908;27.576;2023-02-13T17:46:39;1021.4;;;6.2;73.6
45113;BME280;30873;53.908;27.576;2023-02-13T17:51:41;1021.4;;;6;74.1
45113;BME280;30873;53.908;27.576;2023-02-13T17:56:57;1021.3;;;6;74.4
45113;BME280;30873;53.908;27.576;2023-02-13T18:01:31;1021.1;;;6;74.6
45113;BME280;30873;53.908;27.576;2023-02-13T18:06:43;1021.1;;;5.9;74.7
45113;BME280;30873;53.908;27.576;2023-02-13T18:11:09;1021.1;;;5.9;74.9
45113;BME280;30873;53.908;27.576;2023-02-13T18:16:45;1021.3;;;6;74.8
45113;BME280;30873;53.908;27.576;2023-02-13T18:21:20;1021.2;;;6;74.7
45113;BME280;30873;53.908;27.576;2023-02-13T18:26:43;1021;;;6;74.7
45113;BME280;30873;53.908;27.576;2023-02-13T18:31:29;1021.1;;;6;74.7
45113;BME280;30873;53.908;27.576;2023-02-13T18:36:45;1021.2;;;6;74.8
45113;BME280;30873;53.908;27.576;2023-02-13T18:41:41;1021.2;;;6;74.6
45113;BME280;30873;53.908;27.576;2023-02-13T18:46:45;1021;;;5.9;74.7
45113;BME280;30873;53.908;27.576;2023-02-13T18:51:45;1021.1;;;5.9;74.8
45113;BME280;30873;53.908;27.576;2023-02-13T18:56:10;1021;;;5.9;74.8
45113;BME280;30873;53.908;27.576;2023-02-13T19:01:55;1021;;;5.9;74.9
45113;BME280;30873;53.908;27.576;2023-02-13T19:06:18;1020.9;;;5.9;74.7
45113;BME280;30873;53.908;27.576;2023-02-13T19:11:19;1021;;;5.9;74.7
45113;BME280;30873;53.908;27.576;2023-02-13T19:16:18;1021;;;5.9;74.8
45113;BME280;30873;53.908;27.576;2023-02-13T19:21:55;1021;;;6;74.7
45113;BME280;30873;53.908;27.576;2023-02-13T19:26:41;1021;;;5.9;74.5
45113;BME280;30873;53.908;27.576;2023-02-13T19:31:55;1021;;;5.9;74.6
45113;BME280;30873;53.908;27.576;2023-02-13T19:36:20;1020.8;;;5.9;74.6
45113;BME280;30873;53.908;27.576;2023-02-13T19:41:57;1020.8;;;5.8;74.8
45113;BME280;30873;53.908;27.576;2023-02-13T19:46:33;1020.6;;;5.8;74.9
45113;BME280;30873;53.908;27.576;2023-02-13T19:51:31;1020.6;;;5.8;75
45113;BME280;30873;53.908;27.576;2023-02-13T19:56:43;1020.6;;;5.8;75.2
45113;BME280;30873;53.908;27.576;2023-02-13T20:01:07;1020.7;;;5.8;75.2
45113;BME280;30873;53.908;27.576;2023-02-13T20:06:45;1020.6;;;5.8;75.3
45113;BME280;30873;53.908;27.576;2023-02-13T20:11:55;1020.7;;;5.8;75.2
45113;BME280;30873;53.908;27.576;2023-02-13T20:16:21;1020.5;;;5.8;75.3
45113;BME280;30873;53.908;27.576;2023-02-13T20:21:19;1020.6;;;5.7;75.3
45113;BME280;30873;53.908;27.576;2023-02-13T20:26:57;1020.6;;;5.6;75.7
45113;BME280;30873;53.908;27.576;2023-02-13T20:31:29;1020.6;;;5.7;75.9
45113;BME280;30873;53.908;27.576;2023-02-13T20:36:33;1020.6;;;5.7;75.9
45113;BME280;30873;53.908;27.576;2023-02-13T20:41:43;1020.7;;;5.7;75.7
45113;BME280;30873;53.908;27.576;2023-02-13T20:46:43;1020.7;;;5.7;75.7
45113;BME280;30873;53.908;27.576;2023-02-13T20:51:43;1020.8;;;5.7;75.5
45113;BME280;30873;53.908;27.576;2023-02-13T20:56:18;1020.7;;;5.7;75.4
45113;BME280;30873;53.908;27.576;2023-02-13T21:01:32;1020.6;;;5.7;75.3
45113;BME280;30873;53.908;27.576;2023-02-13T21:06:34;1020.6;;;5.7;75.3
45113;BME280;30873;53.908;27.576;2023-02-13T21:11:07;1020.6;;;5.7;75.3
45113;BME280;30873;53.908;27.576;2023-02-13T21:16:32;1020.6;;;5.8;75.2
45113;BME280;30873;53.908;27.576;2023-02-13T21:21:55;1020.6;;;5.7;75
45113;BME280;30873;53.908;27.576;2023-02-13T21:26:08;1020.5;;;5.8;75
45113;BME280;30873;53.908;27.576;2023-02-13T21:31:08;1020.5;;;5.8;74.8
45113;BME280;30873;53.908;27.576;2023-02-13T21:36:32;1020.6;;;5.8;74.7
45113;BME280;30873;53.908;27.576;2023-02-13T21:41:08;1020.5;;;5.8;74.7
45113;BME280;30873;53.908;27.576;2023-02-13T21:46:08;1020.5;;;5.8;74.6
45113;BME280;30873;53.908;27.576;2023-02-13T21:51:20;1020.4;;;5.8;74.5
45113;BME280;30873;53.908;27.576;2023-02-13T21:56:09;1020.5;;;5.9;74.3
45113;BME280;30873;53.908;27.576;2023-02-13T22:01:57;1020.4;;;5.8;74.2
45113;BME280;30873;53.908;27.576;2023-02-13T22:06:08;1020.4;;;5.8;74.4
45113;BME280;30873;53.908;27.576;2023-02-13T22:11:46;1020.2;;;5.8;74.2
45113;BME280;30873;53.908;27.576;2023-02-13T22:16:57;1020.1;;;5.8;74.1
45113;BME280;30873;53.908;27.576;2023-02-13T22:21:41;1020.3;;;5.8;74.1
45113;BME280;30873;53.908;27.576;2023-02-13T22:26:07;1020.2;;;5.9;74
45113;BME280;30873;53.908;27.576;2023-02-13T22:31:44;1020.2;;;5.9;73.8
45113;BME280;30873;53.908;27.576;2023-02-13T22:36:17;1020.1;;;5.9;73.8
45113;BME280;30873;53.908;27.576;2023-02-13T22:41:43;1020.1;;;5.9;73.7
45113;BME280;30873;53.908;27.576;2023-02-13T22:46:57;1020;;;5.9;73.7
45113;BME280;30873;53.908;27.576;2023-02-13T22:51:43;1020;;;5.9;73.6
45113;BME280;30873;53.908;27.576;2023-02-13T22:56:19;1020.1;;;5.9;73.4
45113;BME280;30873;53.908;27.576;2023-02-13T23:01:08;1020.3;;;5.9;73.3
45113;BME280;30873;53.908;27.576;2023-02-13T23:06:57;1020.4;;;6;73.3
45113;BME280;30873;53.908;27.576;2023-02-13T23:11:41;1020.4;;;6;73
45113;BME280;30873;53.908;27.576;2023-02-13T23:16:41;1020.3;;;6;73
45113;BME280;30873;53.908;27.576;2023-02-13T23:21:45;1020.3;;;6;72.8
45113;BME280;30873;53.908;27.576;2023-02-13T23:26:57;1020.3;;;6;72.7
45113;BME280;30873;53.908;27.576;2023-02-13T23:31:19;1020.3;;;6;72.6
45113;BME280;30873;53.908;27.576;2023-02-13T23:36:57;1020.4;;;6;72.5
45113;BME280;30873;53.908;27.576;2023-02-13T23:41:43;1020.5;;;6;72.4
45113;BME280;30873;53.908;27.576;2023-02-13T23:46:41;1020.6;;;6;72.2
45113;BME280;30873;53.908;27.576;2023-02-13T23:51:55;1020.7;;;6;72.1
45113;BME280;30873;53.908;27.576;2023-02-13T23:56:19;1020.7;;;6;72
